Alsip, Illinois
Current Conditions -  °F | °C
As of 11:53 PM on Wednesday 22 Oct 2014 (Local Time) from KMDW Reporting Station
Clear Clear  
Wind Chill: 45°   Ceiling: Unl
Heat Index: 45°   Visibility: 10mi
Dew Point: 38°   Wind: 3mph
Humidity: 76%   Direction: 150°SSE
Pressure: 30.27"   Gusts: NA
Location:  41.67°N, 87.73°W
Report Text: KMDW 230453Z 15003KT 10SM CLR 07/03 A3027 RMK AO2 SLP253 T00720033
Loading
Personal Weather Stations






























Interactive Weather Map
Tropical Storm Tracking
New forecast layout! Learn more

10-Day Weather Forecast

Advertisements
Track Severe Weather on mobile